createdAt,value
2018-07-27T00:02:27.879Z,23.73
2018-07-27T00:04:56.131Z,23.68
2018-07-27T00:07:24.323Z,23.71
2018-07-27T00:09:52.720Z,23.75
2018-07-27T00:12:21.065Z,23.88
2018-07-27T00:14:49.308Z,24.02
2018-07-27T00:17:17.628Z,24.10
2018-07-27T00:19:45.865Z,24.20
2018-07-27T00:22:14.199Z,24.21
2018-07-27T00:24:42.399Z,23.91
2018-07-27T00:27:10.601Z,23.65
2018-07-27T00:29:38.838Z,23.59
2018-07-27T00:32:07.081Z,23.34
2018-07-27T00:34:35.345Z,23.16
2018-07-27T00:37:03.615Z,23.01
2018-07-27T00:39:31.885Z,23.04
2018-07-27T00:42:00.080Z,22.92
2018-07-27T00:44:28.376Z,22.86
2018-07-27T00:46:56.602Z,22.86
2018-07-27T00:49:24.803Z,22.87
2018-07-27T00:51:53.088Z,22.85
2018-07-27T00:54:21.297Z,22.86
2018-07-27T00:56:49.686Z,22.78
2018-07-27T00:59:17.882Z,22.86
2018-07-27T01:01:46.061Z,22.94
2018-07-27T01:04:14.326Z,22.82
2018-07-27T01:06:42.733Z,22.85
2018-07-27T01:09:11.751Z,22.67
2018-07-27T01:11:40.044Z,22.54
2018-07-27T01:14:08.377Z,22.53
2018-07-27T01:16:36.781Z,22.46
2018-07-27T01:19:05.068Z,22.31
2018-07-27T01:21:33.376Z,22.26
2018-07-27T01:24:01.566Z,22.21
2018-07-27T01:26:29.817Z,22.29
2018-07-27T01:28:58.019Z,22.25
2018-07-27T01:31:26.219Z,22.18
2018-07-27T01:33:54.424Z,22.21
2018-07-27T01:36:23.017Z,22.03
2018-07-27T01:38:51.359Z,21.88
2018-07-27T01:41:19.608Z,21.73
2018-07-27T01:43:47.830Z,21.91
2018-07-27T01:46:16.200Z,21.91
2018-07-27T01:48:44.482Z,21.87
2018-07-27T01:51:13.933Z,21.69
2018-07-27T01:53:42.675Z,21.76
2018-07-27T01:56:11.761Z,21.83
2018-07-27T01:58:40.673Z,21.83
2018-07-27T02:01:09.794Z,21.68
2018-07-27T02:03:39.319Z,21.59
2018-07-27T02:06:08.814Z,21.48
2018-07-27T02:08:37.656Z,21.42
2018-07-27T02:11:07.009Z,21.40
2018-07-27T02:13:36.737Z,21.46
2018-07-27T02:16:06.364Z,21.55
2018-07-27T02:18:35.315Z,21.56
2018-07-27T02:21:04.069Z,21.60
2018-07-27T02:23:32.941Z,21.61
2018-07-27T02:26:01.709Z,21.75
2018-07-27T02:28:31.178Z,21.83
2018-07-27T02:31:00.120Z,21.83
2018-07-27T02:33:29.155Z,21.78
2018-07-27T02:35:58.106Z,21.57
2018-07-27T02:38:26.889Z,21.31
2018-07-27T02:40:56.338Z,21.15
2018-07-27T02:43:25.701Z,21.03
2018-07-27T02:45:54.457Z,21.07
2018-07-27T02:48:23.529Z,20.99
2018-07-27T02:50:53.603Z,20.97
2018-07-27T02:53:22.418Z,20.92
2018-07-27T02:55:52.115Z,21.00
2018-07-27T02:58:21.263Z,21.03
2018-07-27T03:00:50.683Z,21.12
2018-07-27T03:03:21.300Z,21.05
2018-07-27T03:05:50.960Z,21.06
2018-07-27T03:08:20.091Z,21.03
2018-07-27T03:10:49.823Z,21.12
2018-07-27T03:13:19.862Z,21.04
2018-07-27T03:15:50.496Z,21.15
2018-07-27T03:18:19.721Z,21.25
2018-07-27T03:20:52.425Z,21.21
2018-07-27T03:23:21.750Z,21.08
2018-07-27T03:25:51.141Z,20.95
2018-07-27T03:28:20.990Z,20.97
2018-07-27T03:30:52.358Z,20.93
2018-07-27T03:33:26.251Z,20.99
2018-07-27T03:35:57.602Z,21.17
2018-07-27T03:38:26.469Z,21.25
2018-07-27T03:40:58.730Z,21.41
2018-07-27T03:43:27.671Z,21.39
2018-07-27T03:45:56.555Z,21.55
2018-07-27T03:48:26.032Z,21.29
2018-07-27T03:50:55.061Z,21.33
2018-07-27T03:53:24.711Z,21.24
2018-07-27T03:55:54.135Z,21.16
2018-07-27T03:58:24.416Z,21.29
2018-07-27T04:00:53.714Z,21.09
2018-07-27T04:03:23.226Z,20.99
2018-07-27T04:05:56.417Z,21.11
2018-07-27T04:08:25.709Z,21.26
2018-07-27T04:10:56.355Z,21.15
2018-07-27T04:13:26.830Z,21.15
2018-07-27T04:15:55.505Z,21.00
2018-07-27T04:18:24.319Z,20.84
2018-07-27T04:20:53.240Z,20.85
2018-07-27T04:23:22.028Z,20.68
2018-07-27T04:25:50.713Z,20.66
2018-07-27T04:28:20.252Z,20.63
2018-07-27T04:30:49.608Z,20.67
2018-07-27T04:33:19.278Z,20.60
2018-07-27T04:35:48.836Z,20.59
2018-07-27T04:38:17.956Z,20.54
2018-07-27T04:40:46.685Z,20.48
2018-07-27T04:43:16.447Z,20.33
2018-07-27T04:45:45.421Z,20.42
2018-07-27T04:48:14.736Z,20.35
2018-07-27T04:50:43.773Z,20.32
2018-07-27T04:53:12.863Z,20.35
2018-07-27T04:55:41.575Z,20.35
2018-07-27T04:58:11.444Z,20.37
2018-07-27T05:00:41.259Z,20.69
2018-07-27T05:03:10.328Z,20.72
2018-07-27T05:05:38.993Z,20.70
2018-07-27T05:08:08.654Z,20.85
2018-07-27T05:10:43.011Z,20.90
2018-07-27T05:13:11.764Z,21.09
2018-07-27T05:15:47.923Z,21.07
2018-07-27T05:18:17.659Z,21.15
2018-07-27T05:20:47.220Z,21.16
2018-07-27T05:23:16.037Z,21.18
2018-07-27T05:25:44.801Z,21.23
2018-07-27T05:28:13.557Z,21.31
2018-07-27T05:30:43.143Z,21.41
2018-07-27T05:33:13.110Z,21.49
2018-07-27T05:35:42.046Z,21.78
2018-07-27T05:38:10.931Z,22.54
2018-07-27T05:40:39.882Z,23.13
2018-07-27T05:43:08.819Z,23.52
2018-07-27T05:45:37.575Z,24.06
2018-07-27T05:48:06.630Z,24.61
2018-07-27T05:50:35.538Z,24.93
2018-07-27T05:53:04.450Z,25.41
2018-07-27T05:55:33.422Z,25.25
2018-07-27T05:58:02.331Z,25.53
2018-07-27T06:00:30.948Z,25.61
2018-07-27T06:03:00.089Z,25.62
2018-07-27T06:05:29.343Z,25.92
2018-07-27T06:07:58.294Z,25.29
2018-07-27T06:10:27.280Z,24.98
2018-07-27T06:12:56.093Z,24.65
2018-07-27T06:15:24.862Z,24.40
2018-07-27T06:17:53.644Z,24.22
2018-07-27T06:20:23.017Z,24.25
2018-07-27T06:22:52.022Z,24.31
2018-07-27T06:25:21.154Z,24.17
2018-07-27T06:27:50.643Z,24.30
2018-07-27T06:30:19.845Z,24.96
2018-07-27T06:32:48.867Z,25.51
2018-07-27T06:35:19.106Z,25.83
2018-07-27T06:37:47.882Z,25.66
2018-07-27T06:40:16.920Z,25.92
2018-07-27T06:42:45.789Z,26.31
2018-07-27T06:45:15.228Z,26.66
2018-07-27T06:47:44.030Z,26.79
2018-07-27T06:50:12.804Z,26.97
2018-07-27T06:52:41.582Z,26.91
2018-07-27T06:55:10.303Z,27.02
2018-07-27T06:57:39.039Z,27.02
2018-07-27T07:00:08.708Z,26.98
2018-07-27T07:02:37.817Z,27.20
2018-07-27T07:05:06.770Z,27.45
2018-07-27T07:07:35.862Z,27.64
2018-07-27T07:10:05.120Z,27.49
2018-07-27T07:12:35.770Z,27.14
2018-07-27T07:15:06.164Z,26.85
2018-07-27T07:17:35.418Z,26.65
2018-07-27T07:20:04.809Z,26.54
2018-07-27T07:22:33.526Z,26.38
2018-07-27T07:25:03.011Z,26.46
2018-07-27T07:27:32.390Z,26.60
2018-07-27T07:30:01.228Z,27.07
2018-07-27T07:32:29.966Z,27.43
2018-07-27T07:34:58.815Z,27.79
2018-07-27T07:37:27.639Z,27.98
2018-07-27T07:39:57.123Z,27.92
2018-07-27T07:42:26.015Z,28.12
2018-07-27T07:44:54.848Z,28.12
2018-07-27T07:47:23.767Z,28.30
2018-07-27T07:49:52.637Z,28.41
2018-07-27T07:52:21.549Z,28.38
2018-07-27T07:54:50.543Z,28.51
2018-07-27T07:57:19.043Z,28.38
2018-07-27T07:59:48.344Z,28.42
2018-07-27T08:02:16.934Z,28.51
2018-07-27T08:04:45.478Z,28.39
2018-07-27T08:07:14.327Z,28.52
2018-07-27T08:09:43.157Z,28.40
2018-07-27T08:12:11.948Z,28.53
2018-07-27T08:14:40.584Z,28.78
2018-07-27T08:17:09.395Z,29.01
2018-07-27T08:19:39.185Z,29.22
2018-07-27T08:22:07.968Z,29.37
2018-07-27T08:24:37.083Z,29.49
2018-07-27T08:27:07.097Z,29.45
2018-07-27T08:29:40.403Z,29.52
2018-07-27T08:32:09.444Z,29.44
2018-07-27T08:34:38.533Z,29.74
2018-07-27T08:37:07.777Z,29.75
2018-07-27T08:39:37.950Z,29.59
2018-07-27T08:42:06.789Z,29.72
2018-07-27T08:44:37.803Z,29.92
2018-07-27T08:47:06.620Z,30.09
2018-07-27T08:49:35.345Z,30.23
2018-07-27T08:52:04.804Z,30.37
2018-07-27T08:54:34.423Z,30.43
2018-07-27T08:57:03.676Z,30.38
2018-07-27T08:59:32.746Z,30.12
2018-07-27T09:02:01.901Z,29.92
2018-07-27T09:04:31.121Z,29.95
2018-07-27T09:06:59.697Z,29.81
2018-07-27T09:09:28.622Z,30.10
2018-07-27T09:11:57.380Z,30.18
2018-07-27T09:14:25.928Z,30.37
2018-07-27T09:16:54.845Z,30.58
2018-07-27T09:19:24.361Z,30.73
2018-07-27T09:21:54.377Z,30.77
2018-07-27T09:24:23.342Z,30.74
2018-07-27T09:26:52.022Z,30.88
2018-07-27T09:29:21.313Z,31.01
2018-07-27T09:31:50.228Z,31.15
2018-07-27T09:34:18.798Z,31.23
2018-07-27T09:36:47.645Z,31.30
2018-07-27T09:39:16.179Z,31.39
2018-07-27T09:41:44.986Z,31.50
2018-07-27T09:44:14.242Z,31.54
2018-07-27T09:46:43.315Z,31.57
2018-07-27T09:49:12.055Z,31.69
2018-07-27T09:51:40.687Z,31.67
2018-07-27T09:54:09.579Z,31.77
2018-07-27T09:56:38.250Z,31.84
2018-07-27T09:59:07.437Z,31.96
2018-07-27T10:01:36.122Z,32.02
2018-07-27T10:04:05.233Z,32.02
2018-07-27T10:06:34.457Z,31.99
2018-07-27T10:09:03.403Z,32.01
2018-07-27T10:11:32.253Z,32.15
2018-07-27T10:14:00.982Z,32.15
2018-07-27T10:16:29.544Z,32.27
2018-07-27T10:18:58.101Z,32.32
2018-07-27T10:21:26.882Z,32.41
2018-07-27T10:23:55.491Z,32.33
2018-07-27T10:26:24.282Z,32.35
2018-07-27T10:28:52.931Z,32.47
2018-07-27T10:31:22.456Z,32.58
2018-07-27T10:33:51.024Z,32.68
2018-07-27T10:36:19.723Z,32.73
2018-07-27T10:38:48.743Z,32.83
2018-07-27T10:41:17.454Z,32.96
2018-07-27T10:43:46.205Z,33.00
2018-07-27T10:46:15.174Z,33.01
2018-07-27T10:48:43.797Z,33.08
2018-07-27T10:51:12.461Z,33.03
2018-07-27T10:53:41.342Z,32.92
2018-07-27T10:56:10.354Z,33.01
2018-07-27T10:58:39.470Z,33.07
2018-07-27T11:01:08.581Z,33.18
2018-07-27T11:03:37.482Z,33.35
2018-07-27T11:06:06.197Z,33.44
2018-07-27T11:08:35.153Z,33.49
2018-07-27T11:11:03.924Z,33.52
2018-07-27T11:13:32.587Z,33.40
2018-07-27T11:16:01.197Z,33.33
2018-07-27T11:18:30.174Z,33.50
2018-07-27T11:20:58.823Z,33.60
2018-07-27T11:23:27.562Z,33.75
2018-07-27T11:25:56.675Z,33.89
2018-07-27T11:28:25.440Z,33.93
2018-07-27T11:30:53.964Z,33.83
2018-07-27T11:33:22.695Z,33.62
2018-07-27T11:35:51.838Z,33.77
2018-07-27T11:38:20.503Z,34.14
2018-07-27T11:40:49.352Z,34.34
2018-07-27T11:43:19.246Z,34.32
2018-07-27T11:45:48.303Z,34.15
2018-07-27T11:48:17.123Z,33.94
2018-07-27T11:50:45.733Z,33.87
2018-07-27T11:53:14.565Z,33.94
2018-07-27T11:55:43.600Z,34.06
2018-07-27T11:58:12.241Z,34.20
2018-07-27T12:00:40.821Z,34.62
2018-07-27T12:03:09.489Z,34.75
2018-07-27T12:05:38.315Z,34.58
2018-07-27T12:08:07.204Z,34.47
2018-07-27T12:10:36.215Z,34.69
2018-07-27T12:13:05.521Z,34.89
2018-07-27T12:15:34.150Z,35.20
2018-07-27T12:18:03.384Z,36.69
2018-07-27T12:20:32.886Z,37.79
2018-07-27T12:23:02.318Z,39.24
2018-07-27T12:25:31.008Z,40.71
2018-07-27T12:27:59.842Z,42.28
2018-07-27T12:30:28.934Z,43.54
2018-07-27T12:32:58.017Z,44.42
2018-07-27T12:35:27.687Z,45.15
2018-07-27T12:37:57.240Z,45.18
2018-07-27T12:40:26.138Z,44.50
2018-07-27T12:42:55.054Z,45.01
2018-07-27T12:45:23.815Z,45.26
2018-07-27T12:47:52.583Z,45.46
2018-07-27T12:50:21.478Z,46.08
2018-07-27T12:52:50.275Z,46.45
2018-07-27T12:55:19.031Z,46.80
2018-07-27T12:57:47.905Z,47.07
2018-07-27T13:00:16.694Z,47.32
2018-07-27T13:02:46.011Z,47.07
2018-07-27T13:05:14.779Z,47.66
2018-07-27T13:07:43.681Z,48.21
2018-07-27T13:10:12.502Z,48.47
2018-07-27T13:12:41.138Z,49.08
2018-07-27T13:15:09.965Z,49.42
2018-07-27T13:17:39.144Z,49.09
2018-07-27T13:20:08.141Z,49.87
2018-07-27T13:22:36.894Z,49.44
2018-07-27T13:25:05.854Z,48.90
2018-07-27T13:27:35.099Z,48.36
2018-07-27T13:30:04.034Z,48.79
2018-07-27T13:32:32.841Z,49.02
2018-07-27T13:35:01.705Z,48.80
2018-07-27T13:40:01.887Z,48.02
2018-07-27T13:42:32.719Z,48.59
2018-07-27T13:45:01.606Z,48.91
2018-07-27T13:47:31.039Z,48.89
2018-07-27T13:49:59.642Z,47.76
2018-07-27T13:52:28.370Z,47.58
2018-07-27T13:54:57.326Z,47.90
2018-07-27T13:57:26.049Z,48.27
2018-07-27T13:59:54.976Z,48.80
2018-07-27T14:02:23.476Z,48.93
2018-07-27T14:04:52.338Z,48.88
2018-07-27T14:07:20.997Z,49.05
2018-07-27T14:09:49.773Z,47.98
2018-07-27T14:12:19.300Z,46.71
2018-07-27T14:14:48.768Z,46.40
2018-07-27T14:17:17.477Z,46.43
2018-07-27T14:19:46.240Z,45.94
2018-07-27T14:22:15.005Z,46.26
2018-07-27T14:24:43.643Z,45.41
2018-07-27T14:27:12.528Z,44.21
2018-07-27T14:29:41.347Z,43.08
2018-07-27T14:32:10.750Z,42.69
2018-07-27T14:34:39.388Z,42.79
2018-07-27T14:37:09.056Z,43.30
2018-07-27T14:39:38.055Z,43.17
2018-07-27T14:42:06.762Z,43.32
2018-07-27T14:44:35.502Z,44.67
2018-07-27T14:47:03.406Z,46.33
2018-07-27T14:49:32.112Z,47.75
2018-07-27T14:52:00.464Z,49.02
2018-07-27T14:54:29.807Z,49.81
2018-07-27T14:56:59.146Z,49.98
2018-07-27T14:59:28.188Z,50.49
2018-07-27T15:01:56.887Z,50.77
2018-07-27T15:04:25.795Z,50.41
2018-07-27T15:06:54.814Z,49.96
2018-07-27T15:09:23.618Z,50.03
2018-07-27T15:11:52.325Z,49.69
2018-07-27T15:14:21.528Z,50.22
2018-07-27T15:16:50.039Z,48.73
2018-07-27T15:19:18.801Z,48.50
2018-07-27T15:21:47.652Z,48.31
2018-07-27T15:24:16.881Z,48.64
2018-07-27T15:26:45.846Z,48.46
2018-07-27T15:29:14.577Z,48.37
2018-07-27T15:31:43.401Z,48.83
2018-07-27T15:34:12.252Z,48.73
2018-07-27T15:36:40.962Z,49.14
2018-07-27T15:39:10.237Z,48.99
2018-07-27T15:41:38.949Z,49.30
2018-07-27T15:44:07.951Z,49.04
2018-07-27T15:46:36.703Z,49.22
2018-07-27T15:49:06.149Z,47.98
2018-07-27T15:51:35.085Z,46.47
2018-07-27T15:54:03.840Z,46.16
2018-07-27T15:56:32.536Z,46.37
2018-07-27T15:59:01.356Z,46.47
2018-07-27T16:01:30.070Z,47.04
2018-07-27T16:03:58.840Z,47.31
2018-07-27T16:06:27.595Z,47.99
2018-07-27T16:08:56.265Z,48.45
2018-07-27T16:11:24.904Z,48.71
2018-07-27T16:13:54.757Z,48.48
2018-07-27T16:16:23.323Z,48.78
2018-07-27T16:18:52.208Z,48.74
2018-07-27T16:21:21.217Z,48.69
2018-07-27T16:23:50.002Z,48.34
2018-07-27T16:26:18.842Z,48.33
2018-07-27T16:28:47.601Z,48.04
2018-07-27T16:31:16.384Z,47.66
2018-07-27T16:33:44.945Z,47.92
2018-07-27T16:36:13.515Z,47.47
2018-07-27T16:38:43.006Z,47.23
2018-07-27T16:41:11.761Z,47.23
2018-07-27T16:43:40.299Z,47.23
2018-07-27T16:46:08.940Z,47.24
2018-07-27T16:48:38.798Z,46.82
2018-07-27T16:51:07.373Z,46.83
2018-07-27T16:53:35.906Z,46.49
2018-07-27T16:56:04.644Z,46.20
2018-07-27T16:58:33.547Z,44.62
2018-07-27T17:01:02.279Z,44.25
2018-07-27T17:03:32.664Z,43.73
2018-07-27T17:06:01.789Z,43.32
2018-07-27T17:08:31.272Z,43.62
2018-07-27T17:11:00.092Z,43.97
2018-07-27T17:13:28.870Z,43.99
2018-07-27T17:15:57.697Z,44.20
2018-07-27T17:18:26.543Z,44.24
2018-07-27T17:20:55.768Z,44.14
2018-07-27T17:23:25.200Z,44.20
2018-07-27T17:25:53.884Z,43.87
2018-07-27T17:28:23.487Z,43.98
2018-07-27T17:30:52.750Z,43.75
2018-07-27T17:33:21.561Z,42.94
2018-07-27T17:35:50.976Z,42.97
2018-07-27T17:38:19.732Z,42.69
2018-07-27T17:40:48.806Z,42.20
2018-07-27T17:43:17.664Z,42.10
2018-07-27T17:45:46.712Z,41.52
2018-07-27T17:48:16.372Z,41.59
2018-07-27T17:50:45.608Z,41.12
2018-07-27T17:53:14.792Z,40.77
2018-07-27T17:55:44.567Z,40.19
2018-07-27T17:58:13.564Z,39.75
2018-07-27T18:00:42.088Z,38.67
2018-07-27T18:03:10.704Z,38.37
2018-07-27T18:05:39.522Z,37.73
2018-07-27T18:08:08.207Z,36.68
2018-07-27T18:10:37.787Z,35.78
2018-07-27T18:13:06.542Z,34.82
2018-07-27T18:15:35.406Z,34.30
2018-07-27T18:18:04.272Z,33.63
2018-07-27T18:20:33.018Z,33.09
2018-07-27T18:23:02.120Z,32.78
2018-07-27T18:25:30.911Z,32.24
2018-07-27T18:27:59.700Z,31.88
2018-07-27T18:30:29.134Z,31.71
2018-07-27T18:32:58.364Z,31.58
2018-07-27T18:35:27.040Z,31.44
2018-07-27T18:37:55.662Z,31.25
2018-07-27T18:40:24.313Z,31.13
2018-07-27T18:42:53.157Z,31.01
2018-07-27T18:45:22.703Z,30.73
2018-07-27T18:47:51.482Z,30.60
2018-07-27T18:50:20.585Z,30.43
2018-07-27T18:52:49.355Z,30.29
2018-07-27T18:55:18.207Z,30.07
2018-07-27T18:57:46.870Z,29.82
2018-07-27T19:00:15.945Z,29.67
2018-07-27T19:02:44.786Z,29.53
2018-07-27T19:05:13.381Z,29.38
2018-07-27T19:07:42.040Z,29.23
2018-07-27T19:10:12.400Z,29.11
2018-07-27T19:12:41.244Z,28.97
2018-07-27T19:15:10.443Z,28.87
2018-07-27T19:17:39.383Z,28.71
2018-07-27T19:20:08.075Z,28.60
2018-07-27T19:22:36.676Z,28.54
2018-07-27T19:25:05.445Z,28.50
2018-07-27T19:27:34.507Z,28.39
2018-07-27T19:30:03.527Z,28.24
2018-07-27T19:32:32.338Z,28.12
2018-07-27T19:35:01.490Z,28.03
2018-07-27T19:37:30.747Z,27.93
2018-07-27T19:39:59.448Z,27.81
2018-07-27T19:42:28.709Z,27.71
2018-07-27T19:44:57.489Z,27.62
2018-07-27T19:47:26.145Z,27.58
2018-07-27T19:49:54.782Z,27.45
2018-07-27T19:52:23.551Z,27.38
2018-07-27T19:54:52.249Z,27.30
2018-07-27T19:57:20.995Z,27.18
2018-07-27T19:59:49.784Z,27.05
2018-07-27T20:02:18.572Z,26.92
2018-07-27T20:04:47.557Z,26.88
2018-07-27T20:07:16.227Z,26.79
2018-07-27T20:09:45.053Z,26.67
2018-07-27T20:12:13.841Z,26.65
2018-07-27T20:14:42.396Z,26.60
2018-07-27T20:17:11.191Z,26.54
2018-07-27T20:19:39.825Z,26.58
2018-07-27T20:22:09.292Z,26.76
2018-07-27T20:24:38.251Z,27.07
2018-07-27T20:27:07.254Z,27.30
2018-07-27T20:29:36.072Z,27.50
2018-07-27T20:32:04.838Z,27.53
2018-07-27T20:34:33.500Z,27.52
2018-07-27T20:37:02.268Z,27.54
2018-07-27T20:39:31.118Z,27.61
2018-07-27T20:41:59.697Z,27.61
2018-07-27T20:44:28.576Z,27.67
2018-07-27T20:46:57.277Z,27.65
2018-07-27T20:49:26.079Z,27.62
2018-07-27T20:51:54.634Z,27.66
2018-07-27T20:54:23.247Z,27.67
2018-07-27T20:56:52.097Z,27.56
2018-07-27T20:59:21.562Z,27.61
2018-07-27T21:01:50.536Z,27.54
2018-07-27T21:04:19.364Z,27.51
2018-07-27T21:06:48.205Z,27.45
2018-07-27T21:09:17.095Z,27.37
2018-07-27T21:11:49.123Z,27.30
2018-07-27T21:14:17.675Z,27.25
2018-07-27T21:16:46.550Z,27.18
2018-07-27T21:19:15.477Z,27.08
2018-07-27T21:21:44.027Z,26.92
2018-07-27T21:24:13.362Z,26.75
2018-07-27T21:26:41.605Z,26.59
2018-07-27T21:29:10.435Z,26.50
2018-07-27T21:31:39.183Z,26.28
2018-07-27T21:34:08.027Z,26.12
2018-07-27T21:36:36.760Z,25.93
2018-07-27T21:39:08.781Z,25.89
2018-07-27T21:41:38.022Z,25.85
2018-07-27T21:44:06.823Z,25.76
2018-07-27T21:46:36.011Z,25.75
2018-07-27T21:49:04.715Z,25.78
2018-07-27T21:51:33.623Z,25.71
2018-07-27T21:54:02.303Z,25.79
2018-07-27T21:56:30.897Z,25.77
2018-07-27T21:59:00.159Z,25.82
2018-07-27T22:01:29.079Z,25.93
2018-07-27T22:03:58.167Z,26.05
2018-07-27T22:06:31.942Z,26.07
2018-07-27T22:09:00.446Z,26.20
2018-07-27T22:11:32.843Z,26.09
2018-07-27T22:14:15.408Z,26.06
2018-07-27T22:16:57.961Z,26.14
2018-07-27T22:20:11.479Z,26.29
2018-07-27T22:22:41.000Z,26.43
2018-07-27T22:25:10.558Z,26.51
2018-07-27T22:27:39.078Z,26.54
2018-07-27T22:30:20.128Z,26.65
2018-07-27T22:32:52.578Z,26.64
2018-07-27T22:35:22.158Z,26.57
2018-07-27T22:37:51.954Z,26.66
2018-07-27T22:40:21.238Z,26.68
2018-07-27T22:42:49.764Z,26.71
2018-07-27T22:45:18.577Z,26.77
2018-07-27T22:47:48.084Z,26.72
2018-07-27T22:50:17.402Z,26.73
2018-07-27T22:52:47.240Z,26.62
2018-07-27T22:55:16.003Z,26.43
2018-07-27T22:57:44.699Z,26.21
2018-07-27T23:00:15.451Z,26.14
2018-07-27T23:02:45.254Z,26.18
2018-07-27T23:05:14.308Z,26.22
2018-07-27T23:07:43.265Z,26.16
2018-07-27T23:10:11.836Z,25.96
2018-07-27T23:12:40.724Z,26.06
2018-07-27T23:15:11.072Z,26.24
2018-07-27T23:17:39.803Z,26.27
2018-07-27T23:20:12.228Z,26.22
2018-07-27T23:22:41.219Z,25.98
2018-07-27T23:25:09.794Z,25.90
2018-07-27T23:27:38.782Z,25.86
2018-07-27T23:30:09.592Z,25.83
2018-07-27T23:32:38.193Z,25.71
2018-07-27T23:35:07.314Z,25.67
2018-07-27T23:37:36.746Z,25.63
2018-07-27T23:40:05.899Z,25.61
2018-07-27T23:42:34.753Z,25.63
2018-07-27T23:45:03.482Z,25.71
2018-07-27T23:47:32.162Z,25.64
2018-07-27T23:50:01.144Z,25.63
2018-07-27T23:52:30.105Z,25.40
2018-07-27T23:54:58.952Z,25.32
2018-07-27T23:57:27.650Z,25.02
2018-07-27T23:59:56.242Z,25.00
